createdAt,value
2023-05-19T00:01:00.551Z,9.60
2023-05-19T00:03:31.801Z,9.50
2023-05-19T00:06:02.870Z,9.50
2023-05-19T00:08:35.444Z,9.50
2023-05-19T00:11:06.184Z,9.40
2023-05-19T00:13:37.776Z,9.40
2023-05-19T00:16:09.039Z,9.40
2023-05-19T00:18:38.662Z,9.40
2023-05-19T00:21:08.279Z,9.30
2023-05-19T00:23:39.547Z,9.30
2023-05-19T00:26:09.493Z,9.30
2023-05-19T00:28:39.415Z,9.30
2023-05-19T00:31:09.179Z,9.30
2023-05-19T00:33:39.029Z,9.20
2023-05-19T00:36:09.740Z,9.20
2023-05-19T00:38:41.247Z,9.20
2023-05-19T00:41:11.019Z,9.20
2023-05-19T00:43:40.616Z,9.20
2023-05-19T00:46:10.910Z,9.20
2023-05-19T00:48:40.976Z,9.10
2023-05-19T00:51:14.585Z,9.10
2023-05-19T00:53:49.396Z,9.10
2023-05-19T00:56:21.752Z,9.10
2023-05-19T00:58:52.225Z,9.10
2023-05-19T01:01:22.917Z,9.10
2023-05-19T01:03:53.574Z,9.00
2023-05-19T01:06:23.884Z,8.90
2023-05-19T01:08:55.095Z,9.00
2023-05-19T01:11:24.709Z,9.00
2023-05-19T01:13:54.593Z,8.90
2023-05-19T01:16:30.873Z,8.90
2023-05-19T01:19:06.636Z,8.90
2023-05-19T01:22:13.365Z,8.90
2023-05-19T01:25:08.537Z,8.90
2023-05-19T01:28:16.184Z,8.90
2023-05-19T01:30:49.670Z,8.90
2023-05-19T01:33:20.456Z,9.00
2023-05-19T01:35:51.246Z,9.00
2023-05-19T01:38:22.983Z,9.00
2023-05-19T01:40:53.198Z,8.90
2023-05-19T01:43:25.665Z,8.90
2023-05-19T01:45:59.509Z,8.90
2023-05-19T01:48:30.498Z,8.90
2023-05-19T01:51:00.582Z,8.90
2023-05-19T01:53:30.378Z,8.90
2023-05-19T01:56:00.701Z,8.90
2023-05-19T01:58:38.769Z,8.90
2023-05-19T02:01:17.764Z,8.90
2023-05-19T02:04:00.729Z,8.80
2023-05-19T02:06:36.605Z,8.90
2023-05-19T02:09:13.482Z,8.80
2023-05-19T02:11:47.980Z,8.80
2023-05-19T02:14:21.490Z,8.80
2023-05-19T02:16:53.364Z,8.70
2023-05-19T02:19:25.578Z,8.70
2023-05-19T02:21:56.300Z,8.60
2023-05-19T02:24:26.079Z,8.60
2023-05-19T02:26:56.443Z,8.60
2023-05-19T02:29:26.569Z,8.40
2023-05-19T02:31:57.878Z,8.40
2023-05-19T02:34:27.454Z,8.30
2023-05-19T02:36:57.734Z,8.20
2023-05-19T02:39:29.126Z,8.20
2023-05-19T02:41:58.684Z,8.20
2023-05-19T02:44:28.494Z,8.10
2023-05-19T02:46:59.789Z,8.10
2023-05-19T02:49:30.908Z,8.10
2023-05-19T02:52:00.440Z,8.10
2023-05-19T02:54:30.218Z,8.00
2023-05-19T02:57:00.456Z,8.00
2023-05-19T02:59:31.288Z,7.90
2023-05-19T03:02:03.520Z,7.90
2023-05-19T03:04:33.075Z,7.90
2023-05-19T03:07:03.225Z,7.90
2023-05-19T03:09:32.815Z,7.90
2023-05-19T03:12:04.046Z,7.90
2023-05-19T03:14:34.437Z,7.90
2023-05-19T03:17:07.838Z,7.90
2023-05-19T03:19:37.583Z,7.80
2023-05-19T03:22:08.451Z,7.80
2023-05-19T03:24:38.361Z,7.80
2023-05-19T03:27:09.115Z,7.90
2023-05-19T03:29:38.879Z,7.90
2023-05-19T03:32:10.511Z,7.80
2023-05-19T03:34:40.152Z,7.80
2023-05-19T03:37:10.692Z,7.80
2023-05-19T03:39:40.488Z,7.80
2023-05-19T03:42:10.470Z,7.80
2023-05-19T03:44:41.806Z,7.70
2023-05-19T03:47:12.996Z,7.80
2023-05-19T03:49:42.843Z,7.80
2023-05-19T03:52:12.927Z,7.80
2023-05-19T03:54:43.175Z,7.80
2023-05-19T03:57:13.703Z,7.70
2023-05-19T03:59:43.905Z,7.70
2023-05-19T04:02:16.624Z,7.70
2023-05-19T04:04:46.511Z,7.70
2023-05-19T04:07:16.064Z,7.60
2023-05-19T04:09:46.173Z,7.70
2023-05-19T04:12:15.721Z,7.70
2023-05-19T04:14:45.540Z,7.70
2023-05-19T04:17:16.544Z,7.70
2023-05-19T04:19:46.387Z,7.70
2023-05-19T04:22:15.993Z,7.80
2023-05-19T04:24:46.065Z,7.80
2023-05-19T04:27:16.268Z,7.80
2023-05-19T04:29:48.213Z,7.90
2023-05-19T04:32:19.240Z,7.80
2023-05-19T04:34:49.054Z,7.80
2023-05-19T04:37:19.956Z,7.90
2023-05-19T04:39:49.721Z,8.00
2023-05-19T04:42:20.189Z,8.00
2023-05-19T04:44:51.782Z,8.10
2023-05-19T04:47:28.227Z,8.00
2023-05-19T04:50:00.773Z,8.10
2023-05-19T04:52:30.802Z,8.10
2023-05-19T04:55:00.708Z,8.20
2023-05-19T04:57:30.480Z,8.20
2023-05-19T05:00:00.707Z,8.30
2023-05-19T05:02:32.173Z,8.30
2023-05-19T05:05:02.520Z,8.40
2023-05-19T05:07:32.646Z,8.50
2023-05-19T05:10:02.289Z,8.60
2023-05-19T05:12:33.035Z,8.70
2023-05-19T05:15:03.581Z,8.80
2023-05-19T05:17:37.704Z,8.80
2023-05-19T05:20:08.607Z,8.70
2023-05-19T05:22:39.692Z,8.80
2023-05-19T05:25:11.350Z,8.80
2023-05-19T05:27:41.228Z,8.80
2023-05-19T05:30:12.603Z,8.80
2023-05-19T05:32:43.524Z,9.00
2023-05-19T05:35:13.770Z,9.30
2023-05-19T05:37:43.715Z,9.50
2023-05-19T05:40:14.976Z,9.60
2023-05-19T05:42:44.786Z,9.80
2023-05-19T05:45:14.686Z,10.20
2023-05-19T05:47:46.241Z,10.60
2023-05-19T05:50:16.857Z,10.60
2023-05-19T05:52:48.877Z,10.70
2023-05-19T05:55:18.411Z,11.30
2023-05-19T05:57:48.739Z,11.50
2023-05-19T06:00:19.142Z,11.80
2023-05-19T06:02:50.814Z,12.10
2023-05-19T06:05:21.166Z,12.40
2023-05-19T06:07:51.207Z,11.90
2023-05-19T06:10:20.734Z,11.70
2023-05-19T06:12:50.583Z,12.10
2023-05-19T06:15:20.599Z,12.10
2023-05-19T06:17:51.912Z,11.70
2023-05-19T06:20:21.994Z,11.70
2023-05-19T06:22:51.578Z,12.00
2023-05-19T06:25:21.539Z,11.90
2023-05-19T06:27:51.476Z,11.60
2023-05-19T06:30:21.096Z,11.50
2023-05-19T06:32:52.246Z,11.20
2023-05-19T06:35:21.966Z,11.10
2023-05-19T06:37:53.057Z,11.20
2023-05-19T06:40:22.704Z,11.30
2023-05-19T06:42:52.481Z,11.00
2023-05-19T06:45:22.521Z,11.00
2023-05-19T06:47:54.434Z,11.10
2023-05-19T06:50:24.508Z,10.80
2023-05-19T06:52:54.220Z,10.90
2023-05-19T06:55:23.963Z,11.00
2023-05-19T06:57:53.778Z,11.00
2023-05-19T07:00:24.223Z,10.90
2023-05-19T07:02:55.355Z,10.90
2023-05-19T07:05:25.388Z,11.00
2023-05-19T07:07:55.190Z,11.00
2023-05-19T07:10:25.136Z,11.20
2023-05-19T07:12:54.972Z,11.20
2023-05-19T07:15:24.904Z,11.20
2023-05-19T07:17:56.008Z,11.40
2023-05-19T07:20:26.042Z,11.50
2023-05-19T07:22:55.791Z,11.80
2023-05-19T07:25:27.110Z,11.50
2023-05-19T07:27:56.946Z,11.60
2023-05-19T07:30:29.608Z,11.80
2023-05-19T07:33:00.661Z,11.80
2023-05-19T07:35:30.448Z,11.90
2023-05-19T07:38:00.298Z,12.10
2023-05-19T07:40:30.007Z,12.30
2023-05-19T07:42:59.913Z,12.50
2023-05-19T07:45:29.643Z,12.70
2023-05-19T07:48:00.671Z,12.90
2023-05-19T07:50:30.464Z,13.20
2023-05-19T07:53:00.154Z,13.60
2023-05-19T07:55:30.171Z,14.00
2023-05-19T07:58:00.065Z,14.40
2023-05-19T08:00:29.926Z,14.40
2023-05-19T08:03:01.763Z,14.30
2023-05-19T08:05:31.645Z,14.60
2023-05-19T08:08:01.190Z,14.90
2023-05-19T08:10:31.227Z,14.80
2023-05-19T08:13:01.195Z,15.30
2023-05-19T08:15:30.971Z,15.00
2023-05-19T08:18:03.284Z,15.30
2023-05-19T08:20:34.186Z,15.90
2023-05-19T08:23:04.120Z,16.20
2023-05-19T08:25:33.970Z,16.60
2023-05-19T08:28:03.856Z,16.60
2023-05-19T08:30:33.877Z,16.50
2023-05-19T08:33:05.196Z,17.10
2023-05-19T08:35:35.007Z,17.30
2023-05-19T08:38:04.980Z,17.70
2023-05-19T08:40:35.644Z,18.00
2023-05-19T08:43:05.371Z,18.00
2023-05-19T08:45:38.547Z,17.20
2023-05-19T08:48:10.957Z,17.40
2023-05-19T08:50:43.540Z,17.70
2023-05-19T08:53:32.504Z,17.90
2023-05-19T08:56:10.209Z,17.80
2023-05-19T08:58:44.000Z,17.20
2023-05-19T09:01:17.404Z,17.40
2023-05-19T09:03:50.413Z,17.60
2023-05-19T09:06:21.441Z,17.80
2023-05-19T09:08:51.145Z,17.90
2023-05-19T09:11:22.361Z,18.20
2023-05-19T09:13:52.453Z,18.20
2023-05-19T09:16:22.748Z,18.40
2023-05-19T09:19:01.237Z,18.50
2023-05-19T09:21:32.200Z,18.50
2023-05-19T09:24:04.840Z,18.60
2023-05-19T09:26:41.120Z,18.80
2023-05-19T09:29:17.788Z,18.90
2023-05-19T09:31:52.325Z,19.10
2023-05-19T09:34:25.057Z,19.20
2023-05-19T09:36:55.107Z,19.10
2023-05-19T09:39:25.913Z,18.50
2023-05-19T09:41:58.239Z,19.20
2023-05-19T09:44:29.669Z,19.90
2023-05-19T09:47:00.432Z,20.00
2023-05-19T09:49:33.157Z,20.10
2023-05-19T09:52:04.219Z,20.20
2023-05-19T09:54:34.926Z,20.40
2023-05-19T09:57:08.511Z,20.40
2023-05-19T09:59:39.114Z,20.50
2023-05-19T10:02:12.889Z,20.40
2023-05-19T10:04:44.971Z,20.10
2023-05-19T10:07:16.257Z,20.40
2023-05-19T10:09:48.112Z,20.20
2023-05-19T10:12:18.216Z,20.00
2023-05-19T10:14:48.863Z,20.00
2023-05-19T10:17:19.069Z,19.80
2023-05-19T10:19:51.556Z,19.90
2023-05-19T10:22:22.255Z,20.10
2023-05-19T10:24:52.118Z,20.30
2023-05-19T10:27:23.596Z,20.00
2023-05-19T10:29:55.842Z,19.60
2023-05-19T10:32:29.115Z,19.90
2023-05-19T10:35:32.695Z,19.80
2023-05-19T10:38:12.810Z,20.10
2023-05-19T10:40:54.618Z,20.20
2023-05-19T10:43:30.800Z,20.30
2023-05-19T10:46:01.123Z,19.90
2023-05-19T10:48:37.337Z,19.90
2023-05-19T10:51:12.010Z,19.60
2023-05-19T10:53:46.936Z,20.20
2023-05-19T10:56:32.758Z,20.50
2023-05-19T10:59:02.798Z,20.40
2023-05-19T11:01:38.278Z,20.10
2023-05-19T11:04:12.131Z,19.70
2023-05-19T11:06:41.871Z,19.40
2023-05-19T11:09:19.616Z,19.10
2023-05-19T11:11:56.805Z,18.80
2023-05-19T11:14:31.632Z,18.90
2023-05-19T11:17:02.477Z,19.60
2023-05-19T11:19:33.432Z,20.10
2023-05-19T11:22:11.777Z,20.60
2023-05-19T11:24:49.937Z,20.90
2023-05-19T11:27:22.323Z,21.20
2023-05-19T11:29:52.850Z,21.20
2023-05-19T11:32:26.689Z,21.50
2023-05-19T11:34:58.511Z,20.90
2023-05-19T11:37:29.626Z,20.90
2023-05-19T11:40:02.224Z,21.30
2023-05-19T11:42:32.470Z,21.40
2023-05-19T11:45:02.544Z,21.40
2023-05-19T11:47:42.559Z,21.30
2023-05-19T11:50:17.446Z,21.40
2023-05-19T11:52:47.935Z,21.40
2023-05-19T11:55:21.992Z,21.20
2023-05-19T11:58:04.426Z,21.10
2023-05-19T12:00:39.960Z,21.20
2023-05-19T12:03:10.689Z,21.00
2023-05-19T12:05:44.522Z,20.40
2023-05-19T12:08:14.841Z,20.80
2023-05-19T12:10:48.677Z,21.10
2023-05-19T12:13:18.424Z,20.90
2023-05-19T12:15:48.364Z,21.20
2023-05-19T12:18:17.945Z,20.60
2023-05-19T12:20:47.706Z,20.30
2023-05-19T12:23:17.432Z,20.20
2023-05-19T12:25:49.223Z,20.40
2023-05-19T12:28:20.422Z,20.70
2023-05-19T12:30:52.272Z,20.90
2023-05-19T12:33:24.320Z,20.80
2023-05-19T12:35:55.334Z,20.70
2023-05-19T12:38:26.354Z,21.00
2023-05-19T12:40:59.313Z,21.30
2023-05-19T12:43:29.068Z,21.90
2023-05-19T12:45:59.059Z,21.90
2023-05-19T12:48:30.148Z,21.70
2023-05-19T12:51:00.109Z,21.60
2023-05-19T12:53:29.851Z,21.50
2023-05-19T12:56:01.030Z,21.70
2023-05-19T12:58:34.234Z,21.10
2023-05-19T13:01:04.149Z,20.90
2023-05-19T13:03:34.191Z,21.10
2023-05-19T13:06:04.470Z,21.50
2023-05-19T13:08:34.534Z,21.30
2023-05-19T13:11:06.114Z,21.90
2023-05-19T13:13:35.936Z,21.60
2023-05-19T13:16:05.911Z,21.70
2023-05-19T13:18:37.658Z,21.90
2023-05-19T13:21:08.948Z,22.00
2023-05-19T13:23:38.569Z,21.50
2023-05-19T13:26:11.587Z,21.70
2023-05-19T13:28:41.220Z,21.80
2023-05-19T13:31:11.144Z,21.70
2023-05-19T13:33:40.981Z,21.50
2023-05-19T13:36:10.701Z,21.20
2023-05-19T13:38:41.836Z,20.80
2023-05-19T13:41:13.879Z,21.20
2023-05-19T13:43:45.137Z,21.00
2023-05-19T13:46:14.904Z,21.00
2023-05-19T13:48:44.502Z,21.40
2023-05-19T13:51:14.429Z,21.60
2023-05-19T13:53:44.084Z,21.30
2023-05-19T13:56:15.226Z,21.20
2023-05-19T13:58:45.170Z,21.50
2023-05-19T14:01:14.997Z,21.60
2023-05-19T14:03:44.982Z,21.60
2023-05-19T14:06:14.677Z,21.50
2023-05-19T14:08:44.525Z,21.30
2023-05-19T14:11:21.603Z,21.30
2023-05-19T14:13:52.927Z,20.80
2023-05-19T14:16:23.156Z,21.00
2023-05-19T14:18:53.029Z,20.80
2023-05-19T14:21:22.703Z,20.40
2023-05-19T14:23:52.546Z,20.60
2023-05-19T14:26:23.807Z,20.70
2023-05-19T14:28:53.681Z,20.60
2023-05-19T14:31:23.523Z,20.70
2023-05-19T14:33:54.275Z,20.70
2023-05-19T14:36:24.140Z,20.80
2023-05-19T14:38:53.991Z,20.80
2023-05-19T14:41:25.163Z,20.60
2023-05-19T14:43:55.037Z,20.80
2023-05-19T14:46:24.890Z,20.80
2023-05-19T14:48:54.597Z,20.70
2023-05-19T14:51:24.465Z,20.60
2023-05-19T14:53:54.436Z,20.70
2023-05-19T14:56:25.386Z,20.60
2023-05-19T14:58:55.357Z,20.60
2023-05-19T15:01:25.314Z,20.70
2023-05-19T15:03:54.948Z,20.70
2023-05-19T15:06:24.539Z,20.60
2023-05-19T15:08:54.428Z,20.50
2023-05-19T15:11:26.160Z,20.50
2023-05-19T15:13:56.028Z,20.50
2023-05-19T15:16:25.725Z,20.10
2023-05-19T15:18:55.418Z,19.80
2023-05-19T15:21:25.255Z,20.00
2023-05-19T15:23:55.087Z,20.00
2023-05-19T15:26:27.627Z,19.90
2023-05-19T15:28:59.382Z,19.80
2023-05-19T15:31:29.261Z,20.00
2023-05-19T15:33:58.923Z,19.90
2023-05-19T15:36:29.008Z,20.10
2023-05-19T15:38:58.603Z,20.10
2023-05-19T15:41:29.819Z,20.00
2023-05-19T15:44:00.200Z,19.90
2023-05-19T15:46:30.828Z,19.90
2023-05-19T15:49:00.984Z,20.00
2023-05-19T15:51:31.607Z,20.00
2023-05-19T15:54:01.398Z,20.00
2023-05-19T15:56:32.574Z,20.00
2023-05-19T15:59:02.477Z,19.90
2023-05-19T16:01:32.422Z,19.90
2023-05-19T16:04:03.721Z,20.10
2023-05-19T16:06:33.616Z,20.30
2023-05-19T16:09:03.516Z,20.20
2023-05-19T16:11:34.735Z,20.00
2023-05-19T16:14:04.620Z,20.00
2023-05-19T16:16:34.562Z,19.60
2023-05-19T16:19:04.217Z,19.50
2023-05-19T16:21:33.819Z,19.50
2023-05-19T16:24:03.692Z,19.50
2023-05-19T16:26:35.339Z,19.70
2023-05-19T16:29:04.977Z,19.60
2023-05-19T16:31:32.914Z,19.50
2023-05-19T16:34:02.886Z,19.50
2023-05-19T16:36:32.711Z,19.40
2023-05-19T16:39:02.278Z,19.30
2023-05-19T16:41:32.161Z,19.00
2023-05-19T16:44:03.335Z,19.10
2023-05-19T16:46:33.198Z,19.30
2023-05-19T16:49:02.949Z,19.30
2023-05-19T16:51:32.845Z,19.20
2023-05-19T16:54:02.811Z,19.20
2023-05-19T16:56:32.755Z,19.30
2023-05-19T16:59:03.688Z,19.30
2023-05-19T17:01:33.990Z,19.30
2023-05-19T17:04:03.924Z,19.20
2023-05-19T17:06:34.167Z,19.10
2023-05-19T17:09:04.054Z,18.80
2023-05-19T17:11:33.965Z,18.70
2023-05-19T17:14:08.017Z,18.80
2023-05-19T17:16:38.047Z,18.80
2023-05-19T17:19:07.989Z,18.60
2023-05-19T17:21:38.073Z,18.60
2023-05-19T17:24:08.767Z,18.50
2023-05-19T17:26:38.594Z,18.40
2023-05-19T17:29:09.882Z,18.50
2023-05-19T17:31:39.865Z,18.50
2023-05-19T17:34:09.706Z,18.30
2023-05-19T17:36:39.590Z,18.30
2023-05-19T17:39:09.467Z,18.10
2023-05-19T17:41:39.399Z,18.10
2023-05-19T17:44:11.223Z,18.10
2023-05-19T17:46:41.095Z,18.10
2023-05-19T17:49:12.943Z,18.00
2023-05-19T17:51:43.811Z,17.90
2023-05-19T17:54:13.748Z,17.60
2023-05-19T17:56:45.539Z,17.60
2023-05-19T17:59:16.765Z,17.60
2023-05-19T18:01:47.520Z,17.60
2023-05-19T18:04:17.946Z,17.60
2023-05-19T18:06:48.487Z,17.50
2023-05-19T18:09:20.373Z,17.40
2023-05-19T18:11:50.038Z,17.50
2023-05-19T18:14:21.450Z,17.50
2023-05-19T18:16:51.567Z,17.40
2023-05-19T18:19:21.634Z,17.30
2023-05-19T18:21:51.515Z,17.20
2023-05-19T18:24:21.264Z,17.20
2023-05-19T18:26:51.091Z,17.10
2023-05-19T18:29:22.399Z,17.10
2023-05-19T18:31:52.323Z,17.10
2023-05-19T18:34:22.062Z,17.10
2023-05-19T18:36:52.079Z,17.00
2023-05-19T18:39:22.050Z,16.90
2023-05-19T18:41:51.919Z,16.80
2023-05-19T18:44:22.893Z,16.70
2023-05-19T18:46:53.566Z,16.70
2023-05-19T18:49:24.866Z,16.60
2023-05-19T18:51:55.161Z,16.60
2023-05-19T18:54:24.786Z,16.60
2023-05-19T18:56:55.305Z,16.40
2023-05-19T18:59:26.303Z,16.40
2023-05-19T19:01:56.638Z,16.40
2023-05-19T19:04:26.578Z,16.40
2023-05-19T19:06:56.194Z,16.30
2023-05-19T19:09:26.130Z,16.20
2023-05-19T19:11:56.013Z,16.20
2023-05-19T19:14:27.060Z,16.10
2023-05-19T19:16:56.876Z,16.00
2023-05-19T19:19:29.775Z,15.90
2023-05-19T19:21:59.837Z,15.90
2023-05-19T19:24:30.832Z,15.70
2023-05-19T19:27:00.657Z,15.40
2023-05-19T19:29:31.907Z,15.40
2023-05-19T19:32:02.032Z,15.50
2023-05-19T19:34:31.690Z,15.50
2023-05-19T19:37:01.639Z,15.50
2023-05-19T19:39:31.462Z,15.30
2023-05-19T19:42:01.333Z,15.30
2023-05-19T19:44:34.460Z,15.20
2023-05-19T19:47:06.089Z,15.20
2023-05-19T19:49:36.086Z,15.20
2023-05-19T19:52:06.015Z,15.20
2023-05-19T19:54:35.793Z,15.10
2023-05-19T19:57:05.816Z,15.00
2023-05-19T19:59:37.662Z,14.90
2023-05-19T20:02:09.900Z,14.80
2023-05-19T20:04:39.606Z,14.80
2023-05-19T20:07:09.577Z,14.70
2023-05-19T20:09:39.441Z,14.70
2023-05-19T20:12:09.774Z,14.70
2023-05-19T20:14:40.926Z,14.60
2023-05-19T20:17:10.730Z,14.60
2023-05-19T20:19:40.544Z,14.50
2023-05-19T20:22:10.438Z,14.40
2023-05-19T20:24:40.388Z,14.30
2023-05-19T20:27:10.363Z,14.30
2023-05-19T20:29:42.387Z,14.30
2023-05-19T20:32:12.262Z,14.30
2023-05-19T20:34:42.113Z,14.20
2023-05-19T20:37:11.737Z,14.10
2023-05-19T20:39:43.053Z,14.10
2023-05-19T20:42:12.731Z,14.00
2023-05-19T20:44:44.196Z,13.90
2023-05-19T20:47:13.874Z,13.90
2023-05-19T20:49:43.746Z,13.90
2023-05-19T20:52:13.584Z,13.70
2023-05-19T20:54:43.582Z,13.80
2023-05-19T20:57:13.677Z,13.70
2023-05-19T20:59:44.890Z,13.70
2023-05-19T21:02:14.669Z,13.70
2023-05-19T21:04:45.947Z,13.60
2023-05-19T21:07:16.014Z,13.60
2023-05-19T21:09:46.556Z,13.50
2023-05-19T21:12:16.163Z,13.40
2023-05-19T21:14:47.388Z,13.40
2023-05-19T21:17:18.778Z,13.30
2023-05-19T21:19:49.173Z,13.40
2023-05-19T21:22:20.426Z,13.30
2023-05-19T21:24:50.421Z,13.30
2023-05-19T21:27:20.337Z,13.20
2023-05-19T21:29:54.247Z,13.20
2023-05-19T21:32:24.823Z,13.20
2023-05-19T21:34:54.818Z,13.20
2023-05-19T21:37:24.685Z,13.10
2023-05-19T21:39:54.615Z,13.10
2023-05-19T21:42:24.470Z,13.10
2023-05-19T21:44:55.654Z,13.10
2023-05-19T21:47:25.454Z,13.10
2023-05-19T21:49:55.292Z,13.00
2023-05-19T21:52:25.333Z,12.90
2023-05-19T21:54:56.089Z,12.90
2023-05-19T21:57:25.775Z,12.90
2023-05-19T21:59:56.740Z,12.90
2023-05-19T22:02:26.714Z,13.00
2023-05-19T22:04:56.495Z,12.80
2023-05-19T22:07:26.937Z,12.90
2023-05-19T22:09:56.918Z,12.80
2023-05-19T22:12:26.854Z,12.70
2023-05-19T22:14:58.008Z,12.70
2023-05-19T22:17:28.521Z,12.70
2023-05-19T22:19:58.288Z,12.60
2023-05-19T22:22:27.819Z,12.60
2023-05-19T22:24:57.673Z,12.60
2023-05-19T22:27:27.498Z,12.50
2023-05-19T22:29:59.638Z,12.60
2023-05-19T22:32:30.317Z,12.60
2023-05-19T22:35:00.150Z,12.70
2023-05-19T22:37:29.963Z,12.60
2023-05-19T22:40:01.390Z,12.70
2023-05-19T22:42:31.305Z,12.60
2023-05-19T22:45:02.589Z,12.70
2023-05-19T22:47:32.401Z,12.50
2023-05-19T22:50:02.210Z,12.50
2023-05-19T22:52:32.009Z,12.50
2023-05-19T22:55:01.765Z,12.50
2023-05-19T22:57:32.017Z,12.50
2023-05-19T23:00:02.994Z,12.50
2023-05-19T23:02:33.079Z,12.40
2023-05-19T23:05:02.679Z,12.40
2023-05-19T23:07:32.463Z,12.40
2023-05-19T23:10:03.293Z,12.40
2023-05-19T23:12:33.135Z,12.40
2023-05-19T23:15:04.444Z,12.40
2023-05-19T23:17:34.330Z,12.40
2023-05-19T23:20:05.756Z,12.40
2023-05-19T23:22:35.559Z,12.40
2023-05-19T23:25:07.698Z,12.30
2023-05-19T23:27:38.135Z,12.30
2023-05-19T23:30:11.149Z,12.30
2023-05-19T23:32:41.089Z,12.40
2023-05-19T23:35:17.419Z,12.30
2023-05-19T23:37:47.125Z,12.20
2023-05-19T23:40:17.333Z,12.20
2023-05-19T23:42:47.174Z,12.20
2023-05-19T23:45:18.377Z,12.20
2023-05-19T23:47:48.277Z,12.20
2023-05-19T23:50:17.823Z,12.10
2023-05-19T23:52:47.829Z,12.10
2023-05-19T23:55:17.739Z,12.10
2023-05-19T23:57:47.559Z,12.10
